createdAt,value
2017-09-27T00:00:17.175Z,11.11
2017-09-27T00:01:14.425Z,11.10
2017-09-27T00:02:11.664Z,11.08
2017-09-27T00:03:08.921Z,11.09
2017-09-27T00:04:06.173Z,11.06
2017-09-27T00:05:03.579Z,11.06
2017-09-27T00:06:00.892Z,11.06
2017-09-27T00:06:58.182Z,11.03
2017-09-27T00:07:55.433Z,11.03
2017-09-27T00:08:53.373Z,11.01
2017-09-27T00:09:50.651Z,11.01
2017-09-27T00:10:47.926Z,10.98
2017-09-27T00:11:47.296Z,10.99
2017-09-27T00:12:44.602Z,10.99
2017-09-27T00:13:41.845Z,10.97
2017-09-27T00:14:39.262Z,10.96
2017-09-27T00:15:36.505Z,10.95
2017-09-27T00:16:33.752Z,10.93
2017-09-27T00:17:30.977Z,10.92
2017-09-27T00:18:28.228Z,10.93
2017-09-27T00:19:25.480Z,10.92
2017-09-27T00:20:22.764Z,10.91
2017-09-27T00:21:19.994Z,10.90
2017-09-27T00:22:17.263Z,10.89
2017-09-27T00:23:14.508Z,10.88
2017-09-27T00:24:11.778Z,10.86
2017-09-27T00:25:09.059Z,10.87
2017-09-27T00:26:06.344Z,10.85
2017-09-27T00:27:03.585Z,10.85
2017-09-27T00:28:00.856Z,10.83
2017-09-27T00:28:58.096Z,10.82
2017-09-27T00:29:55.373Z,10.82
2017-09-27T00:30:52.616Z,10.80
2017-09-27T00:31:50.202Z,10.79
2017-09-27T00:32:47.460Z,10.78
2017-09-27T00:33:45.089Z,10.78
2017-09-27T00:34:42.337Z,10.76
2017-09-27T00:35:39.658Z,10.75
2017-09-27T00:36:36.924Z,10.75
2017-09-27T00:37:34.194Z,10.74
2017-09-27T00:38:31.467Z,10.74
2017-09-27T00:39:28.747Z,10.73
2017-09-27T00:40:25.984Z,10.71
2017-09-27T00:41:23.259Z,10.72
2017-09-27T00:42:20.481Z,10.70
2017-09-27T00:43:17.739Z,10.70
2017-09-27T00:44:14.971Z,10.68
2017-09-27T00:45:12.533Z,10.68
2017-09-27T00:46:09.777Z,10.66
2017-09-27T00:47:07.067Z,10.65
2017-09-27T00:48:04.331Z,10.66
2017-09-27T00:49:01.591Z,10.63
2017-09-27T00:49:58.827Z,10.63
2017-09-27T00:50:56.122Z,10.62
2017-09-27T00:51:53.362Z,10.61
2017-09-27T00:52:50.605Z,10.61
2017-09-27T00:53:47.834Z,10.60
2017-09-27T00:54:45.112Z,10.58
2017-09-27T00:55:42.365Z,10.57
2017-09-27T00:56:39.644Z,10.57
2017-09-27T00:57:36.894Z,10.56
2017-09-27T00:58:34.152Z,10.53
2017-09-27T00:59:31.384Z,10.54
2017-09-27T01:00:28.657Z,10.52
2017-09-27T01:01:25.894Z,10.53
2017-09-27T01:02:23.162Z,10.51
2017-09-27T01:03:20.419Z,10.50
2017-09-27T01:04:17.694Z,10.49
2017-09-27T01:05:14.934Z,10.48
2017-09-27T01:06:12.206Z,10.47
2017-09-27T01:07:09.469Z,10.46
2017-09-27T01:08:06.720Z,10.46
2017-09-27T01:09:06.513Z,10.45
2017-09-27T01:10:03.793Z,10.43
2017-09-27T01:11:01.034Z,10.43
2017-09-27T01:11:58.317Z,10.42
2017-09-27T01:12:55.546Z,10.41
2017-09-27T01:13:52.881Z,10.39
2017-09-27T01:14:50.093Z,10.40
2017-09-27T01:15:48.129Z,10.39
2017-09-27T01:16:45.379Z,10.38
2017-09-27T01:17:42.682Z,10.37
2017-09-27T01:18:39.994Z,10.36
2017-09-27T01:19:37.262Z,10.35
2017-09-27T01:20:34.515Z,10.35
2017-09-27T01:21:31.791Z,10.34
2017-09-27T01:22:29.026Z,10.33
2017-09-27T01:23:26.306Z,10.32
2017-09-27T01:24:23.558Z,10.32
2017-09-27T01:25:20.841Z,10.30
2017-09-27T01:26:18.094Z,10.30
2017-09-27T01:27:15.382Z,10.30
2017-09-27T01:28:12.623Z,10.29
2017-09-27T01:29:09.880Z,10.26
2017-09-27T01:30:07.134Z,10.26
2017-09-27T01:31:04.423Z,10.25
2017-09-27T01:32:01.752Z,10.25
2017-09-27T01:32:59.075Z,10.25
2017-09-27T01:33:56.323Z,10.23
2017-09-27T01:34:53.648Z,10.22
2017-09-27T01:35:50.923Z,10.22
2017-09-27T01:36:48.250Z,10.21
2017-09-27T01:37:45.510Z,10.17
2017-09-27T01:38:42.794Z,10.18
2017-09-27T01:39:40.043Z,10.18
2017-09-27T01:40:37.341Z,10.16
2017-09-27T01:41:34.630Z,10.15
2017-09-27T01:42:31.979Z,10.16
2017-09-27T01:43:29.205Z,10.13
2017-09-27T01:44:26.483Z,10.13
2017-09-27T01:45:23.749Z,10.12
2017-09-27T01:46:21.029Z,10.12
2017-09-27T01:47:18.294Z,10.11
2017-09-27T01:48:15.554Z,10.09
2017-09-27T01:49:12.819Z,10.09
2017-09-27T01:50:10.093Z,10.09
2017-09-27T01:51:07.321Z,10.08
2017-09-27T01:52:04.623Z,10.06
2017-09-27T01:53:01.881Z,10.06
2017-09-27T01:53:59.163Z,10.06
2017-09-27T01:54:56.422Z,10.04
2017-09-27T01:55:53.698Z,10.03
2017-09-27T01:56:50.977Z,10.02
2017-09-27T01:57:48.246Z,10.02
2017-09-27T01:58:45.509Z,10.00
2017-09-27T01:59:42.766Z,10.00
2017-09-27T02:00:40.029Z,9.98
2017-09-27T02:01:37.306Z,9.99
2017-09-27T02:02:34.605Z,9.98
2017-09-27T02:03:31.881Z,9.96
2017-09-27T02:04:29.145Z,9.95
2017-09-27T02:05:26.581Z,9.95
2017-09-27T02:06:23.848Z,9.95
2017-09-27T02:07:21.149Z,9.93
2017-09-27T02:08:18.374Z,9.93
2017-09-27T02:09:15.681Z,9.91
2017-09-27T02:10:12.905Z,9.91
2017-09-27T02:11:10.165Z,9.90
2017-09-27T02:12:07.400Z,9.89
2017-09-27T02:13:04.722Z,9.88
2017-09-27T02:14:02.004Z,9.88
2017-09-27T02:14:59.302Z,9.86
2017-09-27T02:15:56.542Z,9.87
2017-09-27T02:16:53.790Z,9.84
2017-09-27T02:17:51.065Z,9.86
2017-09-27T02:18:48.345Z,9.85
2017-09-27T02:19:45.637Z,9.82
2017-09-27T02:20:42.913Z,9.82
2017-09-27T02:21:40.168Z,9.82
2017-09-27T02:22:37.428Z,9.80
2017-09-27T02:23:34.682Z,9.80
2017-09-27T02:24:32.229Z,9.79
2017-09-27T02:25:29.471Z,9.78
2017-09-27T02:26:26.750Z,9.77
2017-09-27T02:27:23.990Z,9.76
2017-09-27T02:28:21.287Z,9.76
2017-09-27T02:29:18.572Z,9.75
2017-09-27T02:30:15.818Z,9.75
2017-09-27T02:31:13.058Z,9.75
2017-09-27T02:32:10.370Z,9.73
2017-09-27T02:33:07.627Z,9.73
2017-09-27T02:34:04.891Z,9.71
2017-09-27T02:35:02.133Z,9.72
2017-09-27T02:35:59.416Z,9.69
2017-09-27T02:36:56.694Z,9.70
2017-09-27T02:37:53.958Z,9.69
2017-09-27T02:38:51.215Z,9.69
2017-09-27T02:39:48.473Z,9.68
2017-09-27T02:40:45.694Z,9.68
2017-09-27T02:41:42.950Z,9.67
2017-09-27T02:42:40.203Z,9.67
2017-09-27T02:43:37.525Z,9.65
2017-09-27T02:44:34.750Z,9.65
2017-09-27T02:45:32.014Z,9.63
2017-09-27T02:46:29.318Z,9.63
2017-09-27T02:47:28.655Z,9.61
2017-09-27T02:48:25.916Z,9.60
2017-09-27T02:49:23.219Z,9.60
2017-09-27T02:50:20.454Z,9.61
2017-09-27T02:51:17.729Z,9.58
2017-09-27T02:52:14.935Z,9.58
2017-09-27T02:53:12.199Z,9.58
2017-09-27T02:54:09.495Z,9.57
2017-09-27T02:55:06.794Z,9.56
2017-09-27T02:56:04.057Z,9.55
2017-09-27T02:57:01.335Z,9.54
2017-09-27T02:57:58.762Z,9.54
2017-09-27T02:58:56.061Z,9.53
2017-09-27T02:59:53.326Z,9.52
2017-09-27T03:00:50.582Z,9.52
2017-09-27T03:01:47.809Z,9.50
2017-09-27T03:02:45.115Z,9.50
2017-09-27T03:03:42.337Z,9.49
2017-09-27T03:04:39.633Z,9.50
2017-09-27T03:05:36.961Z,9.48
2017-09-27T03:06:34.245Z,9.47
2017-09-27T03:07:31.464Z,9.47
2017-09-27T03:08:28.724Z,9.46
2017-09-27T03:09:25.988Z,9.45
2017-09-27T03:10:23.322Z,9.45
2017-09-27T03:11:20.567Z,9.45
2017-09-27T03:12:17.827Z,9.43
2017-09-27T03:13:15.118Z,9.41
2017-09-27T03:14:12.384Z,9.41
2017-09-27T03:15:09.655Z,9.40
2017-09-27T03:16:07.001Z,9.41
2017-09-27T03:17:04.238Z,9.40
2017-09-27T03:18:01.565Z,9.39
2017-09-27T03:18:58.907Z,9.37
2017-09-27T03:19:56.194Z,9.36
2017-09-27T03:20:53.497Z,9.36
2017-09-27T03:21:50.790Z,9.35
2017-09-27T03:22:48.026Z,9.35
2017-09-27T03:23:47.345Z,9.34
2017-09-27T03:24:44.597Z,9.34
2017-09-27T03:25:41.925Z,9.34
2017-09-27T03:26:39.158Z,9.32
2017-09-27T03:27:36.438Z,9.31
2017-09-27T03:28:33.750Z,9.32
2017-09-27T03:29:30.995Z,9.30
2017-09-27T03:30:28.235Z,9.29
2017-09-27T03:31:25.529Z,9.30
2017-09-27T03:32:22.766Z,9.29
2017-09-27T03:33:20.087Z,9.29
2017-09-27T03:34:17.332Z,9.28
2017-09-27T03:35:14.626Z,9.26
2017-09-27T03:36:11.859Z,9.26
2017-09-27T03:37:09.208Z,9.24
2017-09-27T03:38:06.525Z,9.23
2017-09-27T03:39:03.868Z,9.22
2017-09-27T03:40:01.134Z,9.22
2017-09-27T03:40:58.423Z,9.22
2017-09-27T03:41:55.796Z,9.21
2017-09-27T03:42:53.368Z,9.21
2017-09-27T03:43:50.593Z,9.21
2017-09-27T03:44:47.833Z,9.20
2017-09-27T03:45:45.117Z,9.19
2017-09-27T03:46:42.394Z,9.19
2017-09-27T03:47:39.784Z,9.15
2017-09-27T03:48:37.071Z,9.16
2017-09-27T03:49:34.809Z,9.15
2017-09-27T03:50:32.097Z,9.14
2017-09-27T03:51:29.432Z,9.13
2017-09-27T03:52:26.824Z,9.12
2017-09-27T03:53:24.207Z,9.11
2017-09-27T03:54:21.567Z,9.12
2017-09-27T03:55:18.858Z,9.11
2017-09-27T03:56:16.142Z,9.09
2017-09-27T03:57:13.454Z,9.09
2017-09-27T03:58:10.931Z,9.09
2017-09-27T03:59:08.158Z,9.08
2017-09-27T04:00:05.515Z,9.07
2017-09-27T04:01:02.871Z,9.08
2017-09-27T04:02:00.226Z,9.06
2017-09-27T04:02:57.475Z,9.05
2017-09-27T04:03:54.918Z,9.05
2017-09-27T04:04:52.259Z,9.05
2017-09-27T04:05:50.157Z,9.03
2017-09-27T04:06:47.506Z,9.03
2017-09-27T04:07:44.859Z,9.02
2017-09-27T04:08:42.126Z,9.01
2017-09-27T04:09:39.412Z,9.00
2017-09-27T04:10:36.681Z,9.01
2017-09-27T04:11:34.114Z,9.00
2017-09-27T04:12:31.446Z,9.00
2017-09-27T04:13:28.718Z,8.99
2017-09-27T04:14:25.985Z,8.99
2017-09-27T04:15:23.316Z,8.99
2017-09-27T04:16:20.604Z,8.97
2017-09-27T04:17:17.963Z,8.96
2017-09-27T04:18:15.227Z,8.98
2017-09-27T04:19:12.535Z,8.96
2017-09-27T04:20:09.795Z,8.94
2017-09-27T04:21:07.134Z,8.95
2017-09-27T04:22:04.458Z,8.95
2017-09-27T04:23:01.736Z,8.94
2017-09-27T04:23:59.002Z,8.93
2017-09-27T04:24:56.282Z,8.93
2017-09-27T04:25:53.658Z,8.93
2017-09-27T04:26:50.962Z,8.91
2017-09-27T04:27:48.262Z,8.92
2017-09-27T04:28:45.578Z,8.91
2017-09-27T04:29:42.862Z,8.90
2017-09-27T04:30:40.132Z,8.89
2017-09-27T04:31:37.441Z,8.90
2017-09-27T04:32:34.723Z,8.89
2017-09-27T04:33:32.005Z,8.89
2017-09-27T04:34:29.380Z,8.85
2017-09-27T04:35:26.625Z,8.87
2017-09-27T04:36:24.232Z,8.87
2017-09-27T04:37:21.514Z,8.86
2017-09-27T04:38:18.787Z,8.86
2017-09-27T04:39:16.029Z,8.84
2017-09-27T04:40:13.327Z,8.85
2017-09-27T04:41:10.682Z,8.83
2017-09-27T04:42:08.050Z,8.83
2017-09-27T04:43:05.398Z,8.82
2017-09-27T04:44:02.750Z,8.83
2017-09-27T04:45:00.062Z,8.82
2017-09-27T04:45:57.354Z,8.81
2017-09-27T04:46:54.614Z,8.79
2017-09-27T04:47:52.040Z,8.80
2017-09-27T04:48:49.289Z,8.80
2017-09-27T04:49:46.563Z,8.80
2017-09-27T04:50:43.867Z,8.78
2017-09-27T04:51:41.137Z,8.78
2017-09-27T04:52:38.406Z,8.78
2017-09-27T04:53:35.708Z,8.77
2017-09-27T04:54:32.941Z,8.76
2017-09-27T04:55:30.241Z,8.76
2017-09-27T04:56:27.506Z,8.76
2017-09-27T04:57:24.833Z,8.76
2017-09-27T04:58:22.078Z,8.74
2017-09-27T04:59:19.368Z,8.74
2017-09-27T05:00:16.632Z,8.74
2017-09-27T05:01:13.905Z,8.75
2017-09-27T05:02:11.197Z,8.74
2017-09-27T05:03:08.541Z,8.74
2017-09-27T05:04:05.842Z,8.73
2017-09-27T05:05:03.192Z,8.72
2017-09-27T05:06:00.446Z,8.70
2017-09-27T05:06:57.856Z,8.69
2017-09-27T05:07:55.158Z,8.70
2017-09-27T05:08:52.594Z,8.70
2017-09-27T05:09:49.896Z,8.69
2017-09-27T05:10:47.220Z,8.68
2017-09-27T05:11:44.553Z,8.69
2017-09-27T05:12:42.044Z,8.68
2017-09-27T05:13:39.353Z,8.67
2017-09-27T05:14:36.706Z,8.67
2017-09-27T05:15:34.045Z,8.68
2017-09-27T05:16:31.980Z,8.68
2017-09-27T05:17:29.209Z,8.67
2017-09-27T05:18:26.509Z,8.65
2017-09-27T05:19:23.817Z,8.66
2017-09-27T05:20:21.103Z,8.66
2017-09-27T05:21:18.350Z,8.64
2017-09-27T05:22:15.655Z,8.65
2017-09-27T05:23:12.949Z,8.65
2017-09-27T05:24:10.281Z,8.65
2017-09-27T05:25:08.210Z,8.63
2017-09-27T05:26:05.525Z,8.63
2017-09-27T05:27:02.785Z,8.62
2017-09-27T05:28:00.072Z,8.62
2017-09-27T05:28:57.435Z,8.62
2017-09-27T05:29:54.701Z,8.61
2017-09-27T05:30:51.981Z,8.61
2017-09-27T05:31:49.344Z,8.61
2017-09-27T05:32:46.691Z,8.61
2017-09-27T05:33:43.991Z,8.60
2017-09-27T05:34:41.266Z,8.59
2017-09-27T05:35:38.526Z,8.59
2017-09-27T05:36:35.818Z,8.59
2017-09-27T05:37:33.070Z,8.59
2017-09-27T05:38:30.415Z,8.58
2017-09-27T05:39:27.758Z,8.58
2017-09-27T05:40:24.998Z,8.58
2017-09-27T05:41:22.364Z,8.58
2017-09-27T05:42:19.782Z,8.57
2017-09-27T05:43:17.130Z,8.56
2017-09-27T05:44:14.500Z,8.57
2017-09-27T05:45:11.903Z,8.56
2017-09-27T05:46:09.215Z,8.56
2017-09-27T05:47:06.585Z,8.57
2017-09-27T05:48:03.874Z,8.55
2017-09-27T05:49:01.158Z,8.55
2017-09-27T05:49:58.454Z,8.55
2017-09-27T05:50:55.834Z,8.55
2017-09-27T05:51:53.071Z,8.55
2017-09-27T05:52:50.336Z,8.55
2017-09-27T05:53:47.638Z,8.54
2017-09-27T05:54:45.026Z,8.54
2017-09-27T05:55:45.141Z,8.53
2017-09-27T05:56:42.584Z,8.51
2017-09-27T05:57:39.870Z,8.54
2017-09-27T05:58:37.206Z,8.52
2017-09-27T05:59:34.625Z,8.53
2017-09-27T06:00:31.881Z,8.51
2017-09-27T06:01:29.361Z,8.52
2017-09-27T06:02:26.628Z,8.52
2017-09-27T06:03:26.181Z,8.51
2017-09-27T06:04:23.440Z,8.50
2017-09-27T06:05:20.926Z,8.51
2017-09-27T06:06:18.161Z,8.50
2017-09-27T06:07:15.409Z,8.49
2017-09-27T06:08:12.681Z,8.50
2017-09-27T06:09:09.950Z,8.51
2017-09-27T06:10:07.264Z,8.50
2017-09-27T06:11:04.638Z,8.50
2017-09-27T06:12:01.931Z,8.50
2017-09-27T06:12:59.223Z,8.49
2017-09-27T06:13:56.468Z,8.49
2017-09-27T06:14:53.770Z,8.50
2017-09-27T06:15:51.088Z,8.49
2017-09-27T06:16:48.437Z,8.49
2017-09-27T06:17:45.883Z,8.49
2017-09-27T06:18:43.559Z,8.49
2017-09-27T06:19:40.801Z,8.49
2017-09-27T06:20:38.134Z,8.49
2017-09-27T06:21:35.494Z,8.49
2017-09-27T06:22:32.751Z,8.50
2017-09-27T06:23:30.067Z,8.51
2017-09-27T06:24:27.369Z,8.50
2017-09-27T06:25:24.628Z,8.49
2017-09-27T06:26:21.918Z,8.50
2017-09-27T06:27:19.143Z,8.49
2017-09-27T06:28:16.419Z,8.49
2017-09-27T06:29:13.824Z,8.49
2017-09-27T06:30:11.118Z,8.50
2017-09-27T06:31:08.378Z,8.50
2017-09-27T06:32:05.698Z,8.50
2017-09-27T06:33:02.969Z,8.50
2017-09-27T06:34:00.229Z,8.50
2017-09-27T06:34:57.462Z,8.50
2017-09-27T06:35:54.871Z,8.51
2017-09-27T06:36:52.183Z,8.51
2017-09-27T06:37:49.450Z,8.51
2017-09-27T06:38:46.758Z,8.52
2017-09-27T06:39:44.036Z,8.50
2017-09-27T06:40:41.293Z,8.50
2017-09-27T06:41:38.585Z,8.52
2017-09-27T06:42:35.827Z,8.51
2017-09-27T06:43:33.084Z,8.51
2017-09-27T06:44:30.334Z,8.53
2017-09-27T06:45:27.588Z,8.53
2017-09-27T06:46:24.879Z,8.54
2017-09-27T06:47:22.161Z,8.53
2017-09-27T06:48:19.422Z,8.54
2017-09-27T06:49:16.674Z,8.54
2017-09-27T06:50:13.944Z,8.54
2017-09-27T06:51:11.260Z,8.55
2017-09-27T06:52:08.522Z,8.54
2017-09-27T06:53:05.827Z,8.56
2017-09-27T06:54:03.071Z,8.56
2017-09-27T06:55:00.385Z,8.56
2017-09-27T06:55:57.626Z,8.55
2017-09-27T06:56:54.927Z,8.56
2017-09-27T06:57:52.146Z,8.56
2017-09-27T06:58:49.393Z,8.56
2017-09-27T06:59:46.621Z,8.57
2017-09-27T07:00:43.864Z,8.57
2017-09-27T07:01:41.117Z,8.58
2017-09-27T07:02:38.410Z,8.57
2017-09-27T07:03:35.638Z,8.58
2017-09-27T07:04:32.913Z,8.58
2017-09-27T07:05:30.182Z,8.58
2017-09-27T07:06:27.478Z,8.60
2017-09-27T07:07:24.765Z,8.60
2017-09-27T07:08:22.006Z,8.60
2017-09-27T07:09:19.246Z,8.61
2017-09-27T07:10:16.517Z,8.60
2017-09-27T07:11:13.789Z,8.62
2017-09-27T07:12:11.147Z,8.63
2017-09-27T07:13:08.417Z,8.64
2017-09-27T07:14:05.689Z,8.65
2017-09-27T07:15:03.001Z,8.66
2017-09-27T07:16:01.394Z,8.66
2017-09-27T07:16:58.646Z,8.67
2017-09-27T07:17:55.922Z,8.67
2017-09-27T07:18:53.137Z,8.68
2017-09-27T07:19:50.404Z,8.69
2017-09-27T07:20:47.629Z,8.69
2017-09-27T07:21:44.893Z,8.70
2017-09-27T07:22:42.166Z,8.71
2017-09-27T07:23:39.435Z,8.73
2017-09-27T07:24:37.004Z,8.74
2017-09-27T07:25:34.269Z,8.74
2017-09-27T07:26:31.508Z,8.75
2017-09-27T07:27:28.806Z,8.75
2017-09-27T07:28:26.195Z,8.77
2017-09-27T07:29:23.465Z,8.77
2017-09-27T07:30:22.775Z,8.78
2017-09-27T07:31:20.022Z,8.78
2017-09-27T07:32:17.298Z,8.81
2017-09-27T07:33:14.688Z,8.83
2017-09-27T07:34:14.045Z,8.82
2017-09-27T07:35:11.290Z,8.81
2017-09-27T07:36:08.566Z,8.84
2017-09-27T07:37:05.811Z,8.84
2017-09-27T07:38:03.117Z,8.86
2017-09-27T07:39:00.345Z,8.86
2017-09-27T07:39:57.636Z,8.88
2017-09-27T07:40:54.914Z,8.88
2017-09-27T07:41:52.181Z,8.89
2017-09-27T07:42:49.421Z,8.91
2017-09-27T07:43:46.713Z,8.92
2017-09-27T07:44:43.965Z,8.93
2017-09-27T07:45:41.282Z,8.94
2017-09-27T07:46:38.541Z,8.94
2017-09-27T07:47:35.879Z,8.95
2017-09-27T07:48:33.273Z,8.98
2017-09-27T07:49:30.537Z,8.99
2017-09-27T07:50:27.777Z,8.99
2017-09-27T07:51:25.021Z,9.01
2017-09-27T07:52:22.669Z,9.02
2017-09-27T07:53:20.193Z,9.01
2017-09-27T07:54:17.450Z,9.03
2017-09-27T07:55:14.722Z,9.06
2017-09-27T07:56:11.992Z,9.06
2017-09-27T07:57:09.265Z,9.07
2017-09-27T07:58:06.509Z,9.08
2017-09-27T07:59:03.880Z,9.08
2017-09-27T08:00:01.125Z,9.12
2017-09-27T08:00:58.397Z,9.14
2017-09-27T08:01:55.817Z,9.13
2017-09-27T08:02:53.096Z,9.15
2017-09-27T08:03:50.366Z,9.14
2017-09-27T08:04:47.639Z,9.17
2017-09-27T08:05:44.915Z,9.19
2017-09-27T08:06:42.323Z,9.19
2017-09-27T08:07:39.609Z,9.22
2017-09-27T08:08:36.986Z,9.24
2017-09-27T08:09:34.297Z,9.25
2017-09-27T08:10:31.575Z,9.27
2017-09-27T08:11:28.821Z,9.29
2017-09-27T08:12:26.126Z,9.31
2017-09-27T08:13:23.412Z,9.32
2017-09-27T08:14:20.897Z,9.33
2017-09-27T08:15:18.140Z,9.34
2017-09-27T08:16:15.814Z,9.37
2017-09-27T08:17:13.074Z,9.37
2017-09-27T08:18:10.355Z,9.39
2017-09-27T08:19:07.625Z,9.41
2017-09-27T08:20:05.021Z,9.43
2017-09-27T08:21:02.279Z,9.45
2017-09-27T08:21:59.585Z,9.46
2017-09-27T08:22:56.850Z,9.49
2017-09-27T08:23:54.135Z,9.50
2017-09-27T08:24:51.473Z,9.53
2017-09-27T08:25:48.759Z,9.55
2017-09-27T08:26:45.989Z,9.56
2017-09-27T08:27:43.277Z,9.58
2017-09-27T08:28:40.546Z,9.60
2017-09-27T08:29:37.868Z,9.62
2017-09-27T08:30:35.122Z,9.65
2017-09-27T08:31:32.730Z,9.67
2017-09-27T08:32:29.966Z,9.69
2017-09-27T08:33:27.257Z,9.71
2017-09-27T08:34:24.722Z,9.74
2017-09-27T08:35:22.002Z,9.75
2017-09-27T08:36:19.254Z,9.77
2017-09-27T08:37:16.519Z,9.79
2017-09-27T08:38:13.743Z,9.80
2017-09-27T08:39:11.019Z,9.85
2017-09-27T08:40:08.273Z,9.86
2017-09-27T08:41:05.511Z,9.89
2017-09-27T08:42:02.751Z,9.89
2017-09-27T08:43:00.030Z,9.92
2017-09-27T08:43:57.257Z,9.94
2017-09-27T08:44:54.525Z,9.97
2017-09-27T08:45:51.761Z,10.00
2017-09-27T08:46:49.030Z,10.02
2017-09-27T08:47:46.274Z,10.06
2017-09-27T08:48:43.531Z,10.07
2017-09-27T08:49:40.837Z,10.10
2017-09-27T08:50:38.138Z,10.12
2017-09-27T08:51:35.391Z,10.15
2017-09-27T08:52:32.674Z,10.18
2017-09-27T08:53:29.943Z,10.20
2017-09-27T08:54:27.189Z,10.23
2017-09-27T08:55:24.438Z,10.26
2017-09-27T08:56:21.694Z,10.29
2017-09-27T08:57:18.929Z,10.31
2017-09-27T08:58:16.194Z,10.33
2017-09-27T08:59:13.462Z,10.36
2017-09-27T09:00:10.835Z,10.38
2017-09-27T09:01:08.106Z,10.41
2017-09-27T09:02:05.410Z,10.46
2017-09-27T09:03:02.646Z,10.46
2017-09-27T09:03:59.931Z,10.51
2017-09-27T09:04:57.290Z,10.54
2017-09-27T09:05:54.817Z,10.56
2017-09-27T09:06:52.138Z,10.59
2017-09-27T09:07:49.401Z,10.61
2017-09-27T09:08:46.634Z,10.65
2017-09-27T09:09:44.750Z,10.67
2017-09-27T09:10:42.065Z,10.69
2017-09-27T09:11:39.352Z,10.72
2017-09-27T09:12:36.610Z,10.76
2017-09-27T09:13:33.868Z,10.78
2017-09-27T09:14:31.240Z,10.81
2017-09-27T09:15:28.547Z,10.85
2017-09-27T09:16:25.807Z,10.87
2017-09-27T09:17:23.070Z,10.90
2017-09-27T09:18:20.327Z,10.94
2017-09-27T09:19:17.565Z,10.97
2017-09-27T09:20:14.795Z,11.00
2017-09-27T09:21:12.093Z,11.02
2017-09-27T09:22:09.343Z,11.05
2017-09-27T09:23:06.596Z,11.09
2017-09-27T09:24:03.850Z,11.13
2017-09-27T09:25:01.113Z,11.14
2017-09-27T09:25:58.401Z,11.17
2017-09-27T09:26:55.722Z,11.21
2017-09-27T09:27:52.973Z,11.24
2017-09-27T09:28:50.307Z,11.28
2017-09-27T09:29:47.658Z,11.29
2017-09-27T09:30:45.053Z,11.33
2017-09-27T09:31:42.326Z,11.37
2017-09-27T09:32:39.655Z,11.39
2017-09-27T09:33:36.942Z,11.42
2017-09-27T09:34:34.253Z,11.44
2017-09-27T09:35:31.533Z,11.48
2017-09-27T09:36:29.175Z,11.51
2017-09-27T09:37:26.463Z,11.54
2017-09-27T09:38:23.859Z,11.56
2017-09-27T09:39:21.148Z,11.59
2017-09-27T09:40:18.446Z,11.62
2017-09-27T09:41:15.731Z,11.65
2017-09-27T09:42:13.082Z,11.69
2017-09-27T09:43:10.404Z,11.71
2017-09-27T09:44:07.779Z,11.77
2017-09-27T09:45:05.090Z,11.79
2017-09-27T09:46:02.462Z,11.82
2017-09-27T09:46:59.726Z,11.87
2017-09-27T09:47:57.410Z,11.91
2017-09-27T09:48:54.682Z,11.95
2017-09-27T09:49:51.997Z,11.98
2017-09-27T09:50:49.289Z,12.01
2017-09-27T09:51:46.600Z,12.05
2017-09-27T09:52:45.931Z,12.07
2017-09-27T09:53:43.239Z,12.11
2017-09-27T09:54:40.608Z,12.14
2017-09-27T09:55:37.961Z,12.17
2017-09-27T09:56:35.276Z,12.23
2017-09-27T09:57:32.578Z,12.24
2017-09-27T09:58:29.856Z,12.29
2017-09-27T09:59:27.774Z,12.32
2017-09-27T10:00:25.048Z,12.36
2017-09-27T10:01:22.297Z,12.40
2017-09-27T10:02:19.873Z,12.43
2017-09-27T10:03:17.845Z,12.47
2017-09-27T10:04:15.141Z,12.51
2017-09-27T10:05:12.443Z,12.54
2017-09-27T10:06:09.755Z,12.59
2017-09-27T10:07:07.004Z,12.62
2017-09-27T10:08:04.307Z,12.66
2017-09-27T10:09:01.539Z,12.68
2017-09-27T10:09:58.812Z,12.73
2017-09-27T10:10:56.065Z,12.77
2017-09-27T10:11:53.321Z,12.79
2017-09-27T10:12:55.702Z,12.82
2017-09-27T10:13:53.026Z,12.87
2017-09-27T10:14:50.330Z,12.91
2017-09-27T10:15:47.662Z,12.94
2017-09-27T10:16:44.950Z,12.98
2017-09-27T10:17:42.296Z,13.01
2017-09-27T10:18:39.575Z,13.05
2017-09-27T10:19:37.048Z,13.09
2017-09-27T10:20:34.314Z,13.11
2017-09-27T10:21:31.634Z,13.14
2017-09-27T10:22:28.997Z,13.18
2017-09-27T10:23:26.306Z,13.22
2017-09-27T10:24:23.606Z,13.28
2017-09-27T10:25:20.898Z,13.30
2017-09-27T10:26:18.246Z,13.33
2017-09-27T10:27:15.563Z,13.36
2017-09-27T10:28:12.881Z,13.39
2017-09-27T10:29:10.188Z,13.43
2017-09-27T10:30:07.489Z,13.47
2017-09-27T10:31:05.107Z,13.51
2017-09-27T10:32:02.351Z,13.55
2017-09-27T10:32:59.720Z,13.59
2017-09-27T10:33:57.011Z,13.61
2017-09-27T10:34:54.324Z,13.65
2017-09-27T10:35:51.642Z,13.68
2017-09-27T10:36:48.901Z,13.72
2017-09-27T10:37:46.143Z,13.75
2017-09-27T10:38:43.426Z,13.79
2017-09-27T10:39:40.696Z,13.82
2017-09-27T10:40:38.026Z,13.86
2017-09-27T10:41:35.310Z,13.90
2017-09-27T10:42:32.592Z,13.93
2017-09-27T10:43:29.867Z,13.98
2017-09-27T10:44:27.250Z,14.00
2017-09-27T10:45:24.497Z,14.03
2017-09-27T10:46:21.789Z,14.07
2017-09-27T10:47:19.025Z,14.10
2017-09-27T10:48:16.289Z,14.12
2017-09-27T10:49:13.540Z,14.15
2017-09-27T10:50:10.796Z,14.20
2017-09-27T10:51:11.722Z,14.22
2017-09-27T10:52:09.000Z,14.25
2017-09-27T10:53:06.568Z,14.28
2017-09-27T10:54:03.890Z,14.31
2017-09-27T10:55:01.170Z,14.34
2017-09-27T10:55:58.451Z,14.36
2017-09-27T10:56:55.749Z,14.40
2017-09-27T10:57:53.010Z,14.46
2017-09-27T10:58:50.317Z,14.47
2017-09-27T10:59:47.571Z,14.51
2017-09-27T11:00:44.929Z,14.53
2017-09-27T11:01:42.182Z,14.55
2017-09-27T11:02:39.504Z,14.59
2017-09-27T11:03:36.812Z,14.62
2017-09-27T11:04:34.074Z,14.65
2017-09-27T11:05:31.329Z,14.68
2017-09-27T11:06:28.606Z,14.71
2017-09-27T11:07:26.411Z,14.74
2017-09-27T11:08:23.984Z,14.78
2017-09-27T11:09:21.300Z,14.80
2017-09-27T11:10:18.602Z,14.85
2017-09-27T11:11:15.833Z,14.87
2017-09-27T11:12:13.094Z,14.91
2017-09-27T11:13:10.361Z,14.94
2017-09-27T11:14:09.747Z,14.97
2017-09-27T11:15:06.996Z,15.00
2017-09-27T11:16:04.258Z,15.02
2017-09-27T11:17:01.507Z,15.06
2017-09-27T11:17:58.766Z,15.08
2017-09-27T11:18:56.014Z,15.11
2017-09-27T11:19:53.313Z,15.14
2017-09-27T11:20:50.531Z,15.17
2017-09-27T11:21:47.793Z,15.20
2017-09-27T11:22:45.106Z,15.22
2017-09-27T11:23:42.377Z,15.26
2017-09-27T11:24:39.655Z,15.29
2017-09-27T11:25:36.922Z,15.31
2017-09-27T11:26:34.153Z,15.36
2017-09-27T11:27:31.414Z,15.37
2017-09-27T11:28:28.683Z,15.42
2017-09-27T11:29:25.952Z,15.45
2017-09-27T11:30:23.226Z,15.47
2017-09-27T11:31:20.497Z,15.49
2017-09-27T11:32:17.726Z,15.54
2017-09-27T11:33:14.994Z,15.55
2017-09-27T11:34:12.226Z,15.59
2017-09-27T11:35:09.509Z,15.61
2017-09-27T11:36:06.751Z,15.63
2017-09-27T11:37:04.031Z,15.67
2017-09-27T11:38:01.270Z,15.68
2017-09-27T11:38:58.542Z,15.71
2017-09-27T11:39:55.816Z,15.73
2017-09-27T11:40:53.062Z,15.77
2017-09-27T11:41:50.302Z,15.79
2017-09-27T11:42:47.590Z,15.81
2017-09-27T11:43:44.931Z,15.86
2017-09-27T11:44:42.237Z,15.87
2017-09-27T11:45:39.502Z,15.90
2017-09-27T11:46:36.760Z,15.91
2017-09-27T11:47:34.145Z,15.94
2017-09-27T11:48:31.420Z,15.96
2017-09-27T11:49:28.663Z,15.98
2017-09-27T11:50:25.963Z,16.00
2017-09-27T11:51:23.202Z,16.02
2017-09-27T11:52:20.495Z,16.05
2017-09-27T11:53:17.758Z,16.07
2017-09-27T11:54:15.020Z,16.10
2017-09-27T11:55:12.301Z,16.12
2017-09-27T11:56:09.578Z,16.15
2017-09-27T11:57:06.798Z,16.16
2017-09-27T11:58:04.042Z,16.19
2017-09-27T11:59:01.268Z,16.22
2017-09-27T11:59:58.519Z,16.23
2017-09-27T12:00:55.846Z,16.25
2017-09-27T12:01:53.122Z,16.29
2017-09-27T12:02:50.374Z,16.30
2017-09-27T12:03:47.641Z,16.32
2017-09-27T12:04:44.891Z,16.32
2017-09-27T12:05:42.883Z,16.35
2017-09-27T12:06:40.110Z,16.38
2017-09-27T12:07:37.489Z,16.41
2017-09-27T12:08:34.698Z,16.43
2017-09-27T12:09:31.994Z,16.46
2017-09-27T12:10:29.247Z,16.47
2017-09-27T12:11:26.639Z,16.49
2017-09-27T12:12:23.874Z,16.51
2017-09-27T12:13:21.140Z,16.53
2017-09-27T12:14:18.398Z,16.55
2017-09-27T12:15:15.661Z,16.58
2017-09-27T12:16:13.018Z,16.60
2017-09-27T12:17:10.712Z,16.62
2017-09-27T12:18:07.986Z,16.64
2017-09-27T12:19:05.273Z,16.67
2017-09-27T12:20:02.557Z,16.67
2017-09-27T12:20:59.922Z,16.70
2017-09-27T12:21:57.210Z,16.73
2017-09-27T12:22:54.492Z,16.75
2017-09-27T12:23:51.741Z,16.76
2017-09-27T12:24:49.049Z,16.79
2017-09-27T12:25:46.786Z,16.80
2017-09-27T12:26:44.065Z,16.82
2017-09-27T12:27:41.336Z,16.84
2017-09-27T12:28:38.617Z,16.85
2017-09-27T12:29:35.866Z,16.88
2017-09-27T12:30:33.127Z,16.90
2017-09-27T12:31:30.457Z,16.93